sensor_id;sensor_type;location;lat;lon;timestamp;P1;durP1;ratioP1;P2;durP2;ratioP2
495;SDS011;39559;48.630;9.162;2022-09-16T00:00:15;9.17;;;8.27;;
495;SDS011;39559;48.630;9.162;2022-09-16T00:02:41;9.13;;;8.33;;
495;SDS011;39559;48.630;9.162;2022-09-16T00:07:09;10.45;;;7.22;;
495;SDS011;39559;48.630;9.162;2022-09-16T00:09:35;8.83;;;7.97;;
495;SDS011;39559;48.630;9.162;2022-09-16T00:12:02;8.57;;;7.78;;
495;SDS011;39559;48.630;9.162;2022-09-16T00:14:29;10.70;;;7.68;;
495;SDS011;39559;48.630;9.162;2022-09-16T00:16:55;9.73;;;8.73;;
495;SDS011;39559;48.630;9.162;2022-09-16T00:19:20;9.57;;;8.20;;
495;SDS011;39559;48.630;9.162;2022-09-16T00:21:46;8.53;;;7.47;;
495;SDS011;39559;48.630;9.162;2022-09-16T00:24:13;8.18;;;7.43;;
495;SDS011;39559;48.630;9.162;2022-09-16T00:26:41;8.25;;;7.50;;
495;SDS011;39559;48.630;9.162;2022-09-16T00:31:07;7.93;;;7.13;;
495;SDS011;39559;48.630;9.162;2022-09-16T00:33:32;8.27;;;7.50;;
495;SDS011;39559;48.630;9.162;2022-09-16T00:36:05;11.33;;;7.80;;
495;SDS011;39559;48.630;9.162;2022-09-16T00:38:32;11.20;;;7.80;;
495;SDS011;39559;48.630;9.162;2022-09-16T00:40:57;8.47;;;7.70;;
495;SDS011;39559;48.630;9.162;2022-09-16T00:43:23;8.70;;;7.80;;
495;SDS011;39559;48.630;9.162;2022-09-16T00:45:50;8.63;;;7.67;;
495;SDS011;39559;48.630;9.162;2022-09-16T00:48:23;8.70;;;7.30;;
495;SDS011;39559;48.630;9.162;2022-09-16T00:50:55;8.80;;;7.90;;
495;SDS011;39559;48.630;9.162;2022-09-16T00:55:05;7.82;;;7.07;;
495;SDS011;39559;48.630;9.162;2022-09-16T00:57:33;8.32;;;6.85;;
495;SDS011;39559;48.630;9.162;2022-09-16T00:59:59;8.10;;;7.38;;
495;SDS011;39559;48.630;9.162;2022-09-16T01:02:25;10.05;;;7.28;;
495;SDS011;39559;48.630;9.162;2022-09-16T01:04:54;8.75;;;7.80;;
495;SDS011;39559;48.630;9.162;2022-09-16T01:07:35;8.55;;;7.75;;
495;SDS011;39559;48.630;9.162;2022-09-16T01:10:06;10.90;;;7.65;;
495;SDS011;39559;48.630;9.162;2022-09-16T01:12:32;8.10;;;7.40;;
495;SDS011;39559;48.630;9.162;2022-09-16T01:15:00;9.07;;;7.63;;
495;SDS011;39559;48.630;9.162;2022-09-16T01:26:51;8.10;;;7.30;;
495;SDS011;39559;48.630;9.162;2022-09-16T01:43:11;9.05;;;8.15;;
495;SDS011;39559;48.630;9.162;2022-09-16T01:45:54;9.93;;;9.02;;
495;SDS011;39559;48.630;9.162;2022-09-16T01:48:24;13.88;;;8.63;;
495;SDS011;39559;48.630;9.162;2022-09-16T01:51:05;15.52;;;9.65;;
495;SDS011;39559;48.630;9.162;2022-09-16T01:53:33;11.18;;;9.98;;
495;SDS011;39559;48.630;9.162;2022-09-16T01:56:13;10.05;;;9.05;;
495;SDS011;39559;48.630;9.162;2022-09-16T01:59:10;9.60;;;8.60;;
495;SDS011;39559;48.630;9.162;2022-09-16T02:01:48;10.07;;;8.95;;
495;SDS011;39559;48.630;9.162;2022-09-16T02:06:58;11.35;;;9.80;;
495;SDS011;39559;48.630;9.162;2022-09-16T02:09:30;11.60;;;9.45;;
495;SDS011;39559;48.630;9.162;2022-09-16T02:12:00;11.60;;;9.02;;
495;SDS011;39559;48.630;9.162;2022-09-16T02:14:32;9.95;;;8.95;;
495;SDS011;39559;48.630;9.162;2022-09-16T02:17:06;11.90;;;9.10;;
495;SDS011;39559;48.630;9.162;2022-09-16T02:22:11;11.95;;;9.10;;
495;SDS011;39559;48.630;9.162;2022-09-16T02:24:40;11.32;;;8.90;;
495;SDS011;39559;48.630;9.162;2022-09-16T02:27:10;11.07;;;9.02;;
495;SDS011;39559;48.630;9.162;2022-09-16T02:30:56;10.68;;;9.60;;
495;SDS011;39559;48.630;9.162;2022-09-16T02:33:29;13.68;;;10.07;;
495;SDS011;39559;48.630;9.162;2022-09-16T02:36:06;10.55;;;8.70;;
495;SDS011;39559;48.630;9.162;2022-09-16T02:38:39;9.77;;;8.32;;
495;SDS011;39559;48.630;9.162;2022-09-16T02:41:08;9.10;;;8.30;;
495;SDS011;39559;48.630;9.162;2022-09-16T02:43:39;10.98;;;8.45;;
495;SDS011;39559;48.630;9.162;2022-09-16T02:46:12;11.95;;;8.75;;
495;SDS011;39559;48.630;9.162;2022-09-16T02:48:42;9.98;;;8.73;;
495;SDS011;39559;48.630;9.162;2022-09-16T02:54:55;9.77;;;8.13;;
495;SDS011;39559;48.630;9.162;2022-09-16T02:57:22;10.02;;;8.23;;
495;SDS011;39559;48.630;9.162;2022-09-16T02:59:48;9.40;;;8.40;;
495;SDS011;39559;48.630;9.162;2022-09-16T03:02:14;10.52;;;9.50;;
495;SDS011;39559;48.630;9.162;2022-09-16T03:04:40;10.13;;;8.30;;
495;SDS011;39559;48.630;9.162;2022-09-16T03:07:07;9.80;;;8.80;;
495;SDS011;39559;48.630;9.162;2022-09-16T03:09:35;11.80;;;9.45;;
495;SDS011;39559;48.630;9.162;2022-09-16T03:22:01;12.35;;;9.30;;
495;SDS011;39559;48.630;9.162;2022-09-16T03:24:38;10.38;;;9.45;;
495;SDS011;39559;48.630;9.162;2022-09-16T03:30:17;11.45;;;10.07;;
495;SDS011;39559;48.630;9.162;2022-09-16T03:32:44;10.38;;;9.38;;
495;SDS011;39559;48.630;9.162;2022-09-16T03:35:37;9.50;;;8.50;;
495;SDS011;39559;48.630;9.162;2022-09-16T03:38:04;11.65;;;8.70;;
495;SDS011;39559;48.630;9.162;2022-09-16T03:42:50;11.07;;;9.13;;
495;SDS011;39559;48.630;9.162;2022-09-16T03:45:17;12.37;;;9.10;;
495;SDS011;39559;48.630;9.162;2022-09-16T03:47:45;11.18;;;8.90;;
495;SDS011;39559;48.630;9.162;2022-09-16T03:50:12;11.65;;;9.40;;
495;SDS011;39559;48.630;9.162;2022-09-16T03:52:38;12.13;;;9.05;;
495;SDS011;39559;48.630;9.162;2022-09-16T03:55:04;10.60;;;9.47;;
495;SDS011;39559;48.630;9.162;2022-09-16T03:57:31;11.45;;;9.38;;
495;SDS011;39559;48.630;9.162;2022-09-16T03:59:57;13.67;;;10.07;;
495;SDS011;39559;48.630;9.162;2022-09-16T04:02:22;11.57;;;10.37;;
495;SDS011;39559;48.630;9.162;2022-09-16T04:06:48;10.73;;;9.73;;
495;SDS011;39559;48.630;9.162;2022-09-16T04:09:14;12.10;;;10.90;;
495;SDS011;39559;48.630;9.162;2022-09-16T04:11:40;12.35;;;11.05;;
495;SDS011;39559;48.630;9.162;2022-09-16T04:14:06;11.00;;;9.90;;
495;SDS011;39559;48.630;9.162;2022-09-16T04:16:32;14.53;;;10.20;;
495;SDS011;39559;48.630;9.162;2022-09-16T04:18:58;11.75;;;9.32;;
495;SDS011;39559;48.630;9.162;2022-09-16T04:21:24;11.87;;;10.37;;
495;SDS011;39559;48.630;9.162;2022-09-16T04:23:50;12.00;;;10.30;;
495;SDS011;39559;48.630;9.162;2022-09-16T04:26:16;11.47;;;10.27;;
495;SDS011;39559;48.630;9.162;2022-09-16T04:30:46;11.50;;;9.60;;
495;SDS011;39559;48.630;9.162;2022-09-16T04:33:12;10.87;;;9.87;;
495;SDS011;39559;48.630;9.162;2022-09-16T04:35:37;11.30;;;10.10;;
495;SDS011;39559;48.630;9.162;2022-09-16T04:38:03;11.50;;;9.60;;
495;SDS011;39559;48.630;9.162;2022-09-16T04:40:29;12.52;;;10.07;;
495;SDS011;39559;48.630;9.162;2022-09-16T04:42:54;11.20;;;9.80;;
495;SDS011;39559;48.630;9.162;2022-09-16T04:45:20;12.17;;;10.17;;
495;SDS011;39559;48.630;9.162;2022-09-16T04:47:46;12.43;;;10.13;;
495;SDS011;39559;48.630;9.162;2022-09-16T04:50:11;11.03;;;9.90;;
495;SDS011;39559;48.630;9.162;2022-09-16T04:54:47;10.50;;;9.40;;
495;SDS011;39559;48.630;9.162;2022-09-16T04:57:13;14.05;;;10.80;;
495;SDS011;39559;48.630;9.162;2022-09-16T04:59:38;11.03;;;10.03;;
495;SDS011;39559;48.630;9.162;2022-09-16T05:02:04;11.30;;;10.20;;
495;SDS011;39559;48.630;9.162;2022-09-16T05:04:29;14.50;;;10.70;;
495;SDS011;39559;48.630;9.162;2022-09-16T05:06:55;11.77;;;10.03;;
495;SDS011;39559;48.630;9.162;2022-09-16T05:09:20;11.63;;;10.33;;
495;SDS011;39559;48.630;9.162;2022-09-16T05:11:47;11.13;;;9.83;;
495;SDS011;39559;48.630;9.162;2022-09-16T05:14:13;13.00;;;11.10;;
495;SDS011;39559;48.630;9.162;2022-09-16T05:18:43;10.98;;;9.82;;
495;SDS011;39559;48.630;9.162;2022-09-16T05:21:11;15.55;;;10.45;;
495;SDS011;39559;48.630;9.162;2022-09-16T05:23:39;14.40;;;11.13;;
495;SDS011;39559;48.630;9.162;2022-09-16T05:26:07;12.68;;;10.77;;
495;SDS011;39559;48.630;9.162;2022-09-16T05:28:34;11.85;;;10.63;;
495;SDS011;39559;48.630;9.162;2022-09-16T05:31:10;12.40;;;11.10;;
495;SDS011;39559;48.630;9.162;2022-09-16T05:33:39;12.15;;;10.95;;
495;SDS011;39559;48.630;9.162;2022-09-16T05:36:15;13.45;;;11.75;;
495;SDS011;39559;48.630;9.162;2022-09-16T05:38:43;13.20;;;11.90;;
495;SDS011;39559;48.630;9.162;2022-09-16T05:42:41;15.07;;;12.80;;
495;SDS011;39559;48.630;9.162;2022-09-16T05:45:06;15.10;;;12.40;;
495;SDS011;39559;48.630;9.162;2022-09-16T05:47:32;15.52;;;12.18;;
495;SDS011;39559;48.630;9.162;2022-09-16T05:49:58;14.23;;;11.37;;
495;SDS011;39559;48.630;9.162;2022-09-16T05:52:23;13.40;;;11.17;;
495;SDS011;39559;48.630;9.162;2022-09-16T05:54:49;15.03;;;11.93;;
495;SDS011;39559;48.630;9.162;2022-09-16T05:57:15;12.83;;;11.47;;
495;SDS011;39559;48.630;9.162;2022-09-16T05:59:40;15.27;;;11.00;;
495;SDS011;39559;48.630;9.162;2022-09-16T06:02:07;12.00;;;10.80;;
495;SDS011;39559;48.630;9.162;2022-09-16T06:06:40;12.40;;;11.13;;
495;SDS011;39559;48.630;9.162;2022-09-16T06:09:11;12.00;;;10.75;;
495;SDS011;39559;48.630;9.162;2022-09-16T06:11:49;12.55;;;11.25;;
495;SDS011;39559;48.630;9.162;2022-09-16T06:14:17;14.77;;;10.90;;
495;SDS011;39559;48.630;9.162;2022-09-16T06:16:44;16.48;;;11.52;;
495;SDS011;39559;48.630;9.162;2022-09-16T06:19:11;14.57;;;11.70;;
495;SDS011;39559;48.630;9.162;2022-09-16T06:21:39;12.00;;;10.70;;
495;SDS011;39559;48.630;9.162;2022-09-16T06:24:08;16.17;;;11.30;;
495;SDS011;39559;48.630;9.162;2022-09-16T06:26:37;12.63;;;11.32;;
495;SDS011;39559;48.630;9.162;2022-09-16T06:30:37;15.50;;;12.98;;
495;SDS011;39559;48.630;9.162;2022-09-16T06:33:03;14.60;;;12.20;;
495;SDS011;39559;48.630;9.162;2022-09-16T06:35:29;14.60;;;12.70;;
495;SDS011;39559;48.630;9.162;2022-09-16T06:37:55;16.50;;;13.90;;
495;SDS011;39559;48.630;9.162;2022-09-16T06:40:20;17.50;;;14.03;;
495;SDS011;39559;48.630;9.162;2022-09-16T06:42:46;15.97;;;12.77;;
495;SDS011;39559;48.630;9.162;2022-09-16T06:45:12;11.83;;;9.30;;
495;SDS011;39559;48.630;9.162;2022-09-16T06:47:37;10.00;;;8.27;;
495;SDS011;39559;48.630;9.162;2022-09-16T06:50:03;9.20;;;8.37;;
495;SDS011;39559;48.630;9.162;2022-09-16T06:54:34;11.82;;;9.65;;
495;SDS011;39559;48.630;9.162;2022-09-16T06:57:00;10.00;;;8.73;;
495;SDS011;39559;48.630;9.162;2022-09-16T06:59:25;11.70;;;8.87;;
495;SDS011;39559;48.630;9.162;2022-09-16T07:01:51;11.40;;;9.40;;
495;SDS011;39559;48.630;9.162;2022-09-16T07:04:16;16.10;;;9.90;;
495;SDS011;39559;48.630;9.162;2022-09-16T07:06:42;12.00;;;9.23;;
495;SDS011;39559;48.630;9.162;2022-09-16T07:09:10;11.20;;;9.40;;
495;SDS011;39559;48.630;9.162;2022-09-16T07:11:35;11.80;;;9.00;;
495;SDS011;39559;48.630;9.162;2022-09-16T07:14:01;11.80;;;9.20;;
495;SDS011;39559;48.630;9.162;2022-09-16T07:18:32;11.25;;;9.38;;
495;SDS011;39559;48.630;9.162;2022-09-16T07:21:02;14.23;;;9.43;;
495;SDS011;39559;48.630;9.162;2022-09-16T07:23:48;13.15;;;10.23;;
495;SDS011;39559;48.630;9.162;2022-09-16T07:26:15;12.00;;;9.47;;
495;SDS011;39559;48.630;9.162;2022-09-16T07:28:43;10.15;;;8.23;;
495;SDS011;39559;48.630;9.162;2022-09-16T07:34:03;8.63;;;7.82;;
495;SDS011;39559;48.630;9.162;2022-09-16T07:36:37;12.82;;;7.03;;
495;SDS011;39559;48.630;9.162;2022-09-16T07:39:07;8.85;;;7.95;;
495;SDS011;39559;48.630;9.162;2022-09-16T07:42:30;8.82;;;7.32;;
495;SDS011;39559;48.630;9.162;2022-09-16T07:44:56;9.97;;;7.93;;
495;SDS011;39559;48.630;9.162;2022-09-16T07:47:21;9.10;;;8.20;;
495;SDS011;39559;48.630;9.162;2022-09-16T07:49:47;11.47;;;8.07;;
495;SDS011;39559;48.630;9.162;2022-09-16T07:52:13;11.13;;;8.33;;
495;SDS011;39559;48.630;9.162;2022-09-16T07:54:40;10.88;;;8.18;;
495;SDS011;39559;48.630;9.162;2022-09-16T07:57:06;12.93;;;9.10;;
495;SDS011;39559;48.630;9.162;2022-09-16T07:59:31;14.40;;;9.07;;
495;SDS011;39559;48.630;9.162;2022-09-16T08:01:57;12.20;;;7.60;;
495;SDS011;39559;48.630;9.162;2022-09-16T08:06:29;14.70;;;7.50;;
495;SDS011;39559;48.630;9.162;2022-09-16T08:08:57;10.50;;;7.85;;
495;SDS011;39559;48.630;9.162;2022-09-16T08:11:25;9.70;;;7.13;;
495;SDS011;39559;48.630;9.162;2022-09-16T08:13:52;7.72;;;6.55;;
495;SDS011;39559;48.630;9.162;2022-09-16T08:16:18;8.20;;;6.47;;
495;SDS011;39559;48.630;9.162;2022-09-16T08:18:48;8.00;;;7.20;;
495;SDS011;39559;48.630;9.162;2022-09-16T08:21:16;8.00;;;6.82;;
495;SDS011;39559;48.630;9.162;2022-09-16T08:23:44;9.55;;;7.47;;
495;SDS011;39559;48.630;9.162;2022-09-16T08:26:10;11.32;;;7.63;;
495;SDS011;39559;48.630;9.162;2022-09-16T08:30:27;11.70;;;8.15;;
495;SDS011;39559;48.630;9.162;2022-09-16T08:32:56;10.37;;;7.87;;
495;SDS011;39559;48.630;9.162;2022-09-16T08:35:23;8.82;;;7.93;;
495;SDS011;39559;48.630;9.162;2022-09-16T08:37:50;9.02;;;8.13;;
495;SDS011;39559;48.630;9.162;2022-09-16T08:40:17;8.73;;;7.20;;
495;SDS011;39559;48.630;9.162;2022-09-16T08:50:52;10.10;;;8.27;;
495;SDS011;39559;48.630;9.162;2022-09-16T08:54:26;10.68;;;8.35;;
495;SDS011;39559;48.630;9.162;2022-09-16T08:57:00;11.35;;;9.20;;
495;SDS011;39559;48.630;9.162;2022-09-16T08:59:30;12.07;;;9.05;;
495;SDS011;39559;48.630;9.162;2022-09-16T09:04:25;10.07;;;9.07;;
495;SDS011;39559;48.630;9.162;2022-09-16T09:09:49;9.55;;;8.20;;
495;SDS011;39559;48.630;9.162;2022-09-16T09:26:13;15.38;;;10.10;;
495;SDS011;39559;48.630;9.162;2022-09-16T09:29:15;12.18;;;9.30;;
495;SDS011;39559;48.630;9.162;2022-09-16T09:31:58;13.13;;;11.63;;
495;SDS011;39559;48.630;9.162;2022-09-16T09:42:28;10.88;;;9.38;;
495;SDS011;39559;48.630;9.162;2022-09-16T09:44:59;10.68;;;9.68;;
495;SDS011;39559;48.630;9.162;2022-09-16T09:50:17;11.60;;;10.35;;
495;SDS011;39559;48.630;9.162;2022-09-16T09:52:59;10.57;;;9.48;;
495;SDS011;39559;48.630;9.162;2022-09-16T09:55:33;10.77;;;9.75;;
495;SDS011;39559;48.630;9.162;2022-09-16T10:00:38;10.77;;;9.07;;
495;SDS011;39559;48.630;9.162;2022-09-16T10:03:11;9.93;;;8.93;;
495;SDS011;39559;48.630;9.162;2022-09-16T10:06:21;9.05;;;8.20;;
495;SDS011;39559;48.630;9.162;2022-09-16T10:08:51;10.55;;;8.70;;
495;SDS011;39559;48.630;9.162;2022-09-16T10:11:22;10.32;;;9.23;;
495;SDS011;39559;48.630;9.162;2022-09-16T10:13:51;9.75;;;8.60;;
495;SDS011;39559;48.630;9.162;2022-09-16T10:16:20;12.65;;;9.82;;
495;SDS011;39559;48.630;9.162;2022-09-16T10:19:16;10.70;;;9.40;;
495;SDS011;39559;48.630;9.162;2022-09-16T10:21:46;10.00;;;9.10;;
495;SDS011;39559;48.630;9.162;2022-09-16T10:26:55;8.60;;;7.80;;
495;SDS011;39559;48.630;9.162;2022-09-16T10:30:21;9.23;;;8.43;;
495;SDS011;39559;48.630;9.162;2022-09-16T10:35:22;8.80;;;7.90;;
495;SDS011;39559;48.630;9.162;2022-09-16T10:37:54;8.85;;;8.05;;
495;SDS011;39559;48.630;9.162;2022-09-16T10:40:23;14.45;;;9.70;;
495;SDS011;39559;48.630;9.162;2022-09-16T10:42:50;11.43;;;9.07;;
495;SDS011;39559;48.630;9.162;2022-09-16T10:47:46;10.07;;;9.07;;
495;SDS011;39559;48.630;9.162;2022-09-16T10:50:16;11.35;;;9.30;;
495;SDS011;39559;48.630;9.162;2022-09-16T10:54:25;10.43;;;9.43;;
495;SDS011;39559;48.630;9.162;2022-09-16T10:56:52;10.02;;;9.13;;
495;SDS011;39559;48.630;9.162;2022-09-16T10:59:18;9.88;;;8.95;;
495;SDS011;39559;48.630;9.162;2022-09-16T11:02:01;9.20;;;8.30;;
495;SDS011;39559;48.630;9.162;2022-09-16T11:10:04;9.52;;;8.73;;
495;SDS011;39559;48.630;9.162;2022-09-16T11:37:41;7.57;;;6.88;;
495;SDS011;39559;48.630;9.162;2022-09-16T11:42:16;7.32;;;6.68;;
495;SDS011;39559;48.630;9.162;2022-09-16T11:47:48;8.48;;;7.43;;
495;SDS011;39559;48.630;9.162;2022-09-16T11:50:48;7.80;;;7.10;;
495;SDS011;39559;48.630;9.162;2022-09-16T11:56:00;7.25;;;6.55;;
495;SDS011;39559;48.630;9.162;2022-09-16T11:58:36;5.90;;;5.40;;
495;SDS011;39559;48.630;9.162;2022-09-16T12:01:14;6.50;;;5.90;;
495;SDS011;39559;48.630;9.162;2022-09-16T12:06:09;5.38;;;4.88;;
495;SDS011;39559;48.630;9.162;2022-09-16T12:09:41;6.60;;;4.90;;
495;SDS011;39559;48.630;9.162;2022-09-16T12:11:42;5.78;;;5.05;;
495;SDS011;39559;48.630;9.162;2022-09-16T12:14:33;5.50;;;4.88;;
495;SDS011;39559;48.630;9.162;2022-09-16T12:17:14;6.00;;;5.30;;
495;SDS011;39559;48.630;9.162;2022-09-16T12:22:35;5.18;;;4.68;;
495;SDS011;39559;48.630;9.162;2022-09-16T12:25:08;4.50;;;4.10;;
495;SDS011;39559;48.630;9.162;2022-09-16T12:30:11;5.20;;;4.70;;
495;SDS011;39559;48.630;9.162;2022-09-16T12:32:58;5.50;;;5.00;;
495;SDS011;39559;48.630;9.162;2022-09-16T12:35:30;5.10;;;4.40;;
495;SDS011;39559;48.630;9.162;2022-09-16T12:38:00;4.63;;;4.22;;
495;SDS011;39559;48.630;9.162;2022-09-16T12:43:19;5.63;;;4.50;;
495;SDS011;39559;48.630;9.162;2022-09-16T12:59:48;5.10;;;4.53;;
495;SDS011;39559;48.630;9.162;2022-09-16T13:02:31;7.20;;;4.50;;
495;SDS011;39559;48.630;9.162;2022-09-16T13:05:08;4.97;;;4.57;;
495;SDS011;39559;48.630;9.162;2022-09-16T13:07:54;5.20;;;4.80;;
495;SDS011;39559;48.630;9.162;2022-09-16T13:10:28;5.45;;;4.75;;
495;SDS011;39559;48.630;9.162;2022-09-16T13:12:55;5.30;;;4.80;;
495;SDS011;39559;48.630;9.162;2022-09-16T13:20:41;7.35;;;4.78;;
495;SDS011;39559;48.630;9.162;2022-09-16T13:23:18;5.50;;;5.00;;
495;SDS011;39559;48.630;9.162;2022-09-16T13:25:50;5.63;;;4.70;;
495;SDS011;39559;48.630;9.162;2022-09-16T13:28:34;5.30;;;4.80;;
495;SDS011;39559;48.630;9.162;2022-09-16T13:38:59;5.10;;;4.32;;
495;SDS011;39559;48.630;9.162;2022-09-16T13:44:54;4.60;;;4.20;;
495;SDS011;39559;48.630;9.162;2022-09-16T13:47:38;4.50;;;4.10;;
495;SDS011;39559;48.630;9.162;2022-09-16T13:50:13;4.47;;;3.80;;
495;SDS011;39559;48.630;9.162;2022-09-16T13:52:43;4.50;;;4.10;;
495;SDS011;39559;48.630;9.162;2022-09-16T13:55:22;6.70;;;4.50;;
495;SDS011;39559;48.630;9.162;2022-09-16T13:57:54;4.63;;;4.22;;
495;SDS011;39559;48.630;9.162;2022-09-16T14:14:12;4.90;;;4.40;;
495;SDS011;39559;48.630;9.162;2022-09-16T14:16:41;4.78;;;4.25;;
495;SDS011;39559;48.630;9.162;2022-09-16T14:19:25;5.75;;;4.72;;
495;SDS011;39559;48.630;9.162;2022-09-16T14:24:51;5.05;;;4.55;;
495;SDS011;39559;48.630;9.162;2022-09-16T14:29:54;4.90;;;4.50;;
495;SDS011;39559;48.630;9.162;2022-09-16T14:32:25;6.80;;;5.03;;
495;SDS011;39559;48.630;9.162;2022-09-16T14:34:54;5.15;;;4.65;;
495;SDS011;39559;48.630;9.162;2022-09-16T14:37:23;6.32;;;5.25;;
495;SDS011;39559;48.630;9.162;2022-09-16T14:39:51;5.95;;;4.60;;
495;SDS011;39559;48.630;9.162;2022-09-16T14:42:19;5.68;;;4.90;;
495;SDS011;39559;48.630;9.162;2022-09-16T14:44:53;5.55;;;4.43;;
495;SDS011;39559;48.630;9.162;2022-09-16T14:49:49;5.05;;;4.55;;
495;SDS011;39559;48.630;9.162;2022-09-16T14:53:54;6.38;;;5.20;;
495;SDS011;39559;48.630;9.162;2022-09-16T14:56:22;5.20;;;4.70;;
495;SDS011;39559;48.630;9.162;2022-09-16T14:58:48;5.63;;;5.00;;
495;SDS011;39559;48.630;9.162;2022-09-16T15:01:25;4.72;;;4.13;;
495;SDS011;39559;48.630;9.162;2022-09-16T15:06:30;5.95;;;4.55;;
495;SDS011;39559;48.630;9.162;2022-09-16T15:09:23;5.88;;;4.53;;
495;SDS011;39559;48.630;9.162;2022-09-16T15:11:52;5.05;;;4.55;;
495;SDS011;39559;48.630;9.162;2022-09-16T15:14:21;4.90;;;4.47;;
495;SDS011;39559;48.630;9.162;2022-09-16T15:18:11;5.03;;;4.40;;
495;SDS011;39559;48.630;9.162;2022-09-16T15:23:47;4.63;;;4.15;;
495;SDS011;39559;48.630;9.162;2022-09-16T15:29:01;7.80;;;4.30;;
495;SDS011;39559;48.630;9.162;2022-09-16T15:31:29;5.35;;;4.40;;
495;SDS011;39559;48.630;9.162;2022-09-16T15:33:56;4.80;;;4.40;;
495;SDS011;39559;48.630;9.162;2022-09-16T15:36:34;4.68;;;4.00;;
495;SDS011;39559;48.630;9.162;2022-09-16T15:39:02;6.20;;;4.57;;
495;SDS011;39559;48.630;9.162;2022-09-16T15:41:44;4.18;;;3.88;;
495;SDS011;39559;48.630;9.162;2022-09-16T15:44:12;4.83;;;4.30;;
495;SDS011;39559;48.630;9.162;2022-09-16T15:46:51;6.97;;;4.65;;
495;SDS011;39559;48.630;9.162;2022-09-16T15:49:17;4.53;;;4.13;;
495;SDS011;39559;48.630;9.162;2022-09-16T15:51:45;5.20;;;4.70;;
495;SDS011;39559;48.630;9.162;2022-09-16T16:02:22;4.45;;;4.05;;
495;SDS011;39559;48.630;9.162;2022-09-16T16:05:42;4.78;;;4.30;;
495;SDS011;39559;48.630;9.162;2022-09-16T16:08:35;5.38;;;4.80;;
495;SDS011;39559;48.630;9.162;2022-09-16T16:11:16;5.38;;;4.88;;
495;SDS011;39559;48.630;9.162;2022-09-16T16:13:43;5.90;;;5.38;;
495;SDS011;39559;48.630;9.162;2022-09-16T16:16:10;4.57;;;4.18;;
495;SDS011;39559;48.630;9.162;2022-09-16T16:18:37;4.60;;;4.20;;
495;SDS011;39559;48.630;9.162;2022-09-16T16:21:08;6.28;;;4.35;;
495;SDS011;39559;48.630;9.162;2022-09-16T16:23:39;4.75;;;4.35;;
495;SDS011;39559;48.630;9.162;2022-09-16T16:26:05;6.57;;;4.50;;
495;SDS011;39559;48.630;9.162;2022-09-16T16:29:38;6.32;;;4.75;;
495;SDS011;39559;48.630;9.162;2022-09-16T16:32:05;4.47;;;4.13;;
495;SDS011;39559;48.630;9.162;2022-09-16T16:34:33;6.50;;;4.18;;
495;SDS011;39559;48.630;9.162;2022-09-16T16:37:01;5.18;;;4.40;;
495;SDS011;39559;48.630;9.162;2022-09-16T16:39:27;5.57;;;4.35;;
495;SDS011;39559;48.630;9.162;2022-09-16T16:41:53;4.50;;;4.10;;
495;SDS011;39559;48.630;9.162;2022-09-16T16:44:19;4.93;;;4.20;;
495;SDS011;39559;48.630;9.162;2022-09-16T16:46:47;4.88;;;4.47;;
495;SDS011;39559;48.630;9.162;2022-09-16T16:49:16;5.80;;;4.30;;
495;SDS011;39559;48.630;9.162;2022-09-16T16:53:35;15.65;;;9.02;;
495;SDS011;39559;48.630;9.162;2022-09-16T16:56:02;8.23;;;7.00;;
495;SDS011;39559;48.630;9.162;2022-09-16T16:58:33;4.85;;;4.18;;
495;SDS011;39559;48.630;9.162;2022-09-16T17:01:13;5.07;;;4.20;;
495;SDS011;39559;48.630;9.162;2022-09-16T17:03:41;5.90;;;4.10;;
495;SDS011;39559;48.630;9.162;2022-09-16T17:06:08;6.43;;;4.32;;
495;SDS011;39559;48.630;9.162;2022-09-16T17:08:35;5.57;;;4.20;;
495;SDS011;39559;48.630;9.162;2022-09-16T17:13:39;6.30;;;5.60;;
495;SDS011;39559;48.630;9.162;2022-09-16T17:17:32;4.93;;;4.32;;
495;SDS011;39559;48.630;9.162;2022-09-16T17:19:57;5.10;;;4.70;;
495;SDS011;39559;48.630;9.162;2022-09-16T17:22:23;5.57;;;5.07;;
495;SDS011;39559;48.630;9.162;2022-09-16T17:24:49;5.70;;;5.20;;
495;SDS011;39559;48.630;9.162;2022-09-16T17:27:14;6.60;;;4.47;;
495;SDS011;39559;48.630;9.162;2022-09-16T17:29:43;5.80;;;4.85;;
495;SDS011;39559;48.630;9.162;2022-09-16T17:32:09;5.43;;;4.93;;
495;SDS011;39559;48.630;9.162;2022-09-16T17:34:34;5.63;;;5.07;;
495;SDS011;39559;48.630;9.162;2022-09-16T17:37:00;4.30;;;3.90;;
495;SDS011;39559;48.630;9.162;2022-09-16T17:41:29;4.82;;;4.30;;
495;SDS011;39559;48.630;9.162;2022-09-16T17:43:55;7.47;;;4.73;;
495;SDS011;39559;48.630;9.162;2022-09-16T17:46:22;5.85;;;5.25;;
495;SDS011;39559;48.630;9.162;2022-09-16T17:48:51;5.30;;;4.82;;
495;SDS011;39559;48.630;9.162;2022-09-16T17:51:18;5.75;;;4.95;;
495;SDS011;39559;48.630;9.162;2022-09-16T17:53:44;5.33;;;4.83;;
495;SDS011;39559;48.630;9.162;2022-09-16T17:56:11;8.43;;;5.10;;
495;SDS011;39559;48.630;9.162;2022-09-16T17:58:39;5.60;;;5.10;;
495;SDS011;39559;48.630;9.162;2022-09-16T18:01:10;5.18;;;4.68;;
495;SDS011;39559;48.630;9.162;2022-09-16T18:05:26;4.30;;;3.83;;
495;SDS011;39559;48.630;9.162;2022-09-16T18:07:52;7.13;;;3.70;;
495;SDS011;39559;48.630;9.162;2022-09-16T18:10:17;4.13;;;3.67;;
495;SDS011;39559;48.630;9.162;2022-09-16T18:12:43;4.20;;;3.80;;
495;SDS011;39559;48.630;9.162;2022-09-16T18:15:08;4.33;;;3.53;;
495;SDS011;39559;48.630;9.162;2022-09-16T18:17:34;3.87;;;3.47;;
495;SDS011;39559;48.630;9.162;2022-09-16T18:19:59;3.60;;;3.30;;
495;SDS011;39559;48.630;9.162;2022-09-16T18:22:25;3.67;;;3.33;;
495;SDS011;39559;48.630;9.162;2022-09-16T18:24:51;3.70;;;3.33;;
495;SDS011;39559;48.630;9.162;2022-09-16T18:29:23;3.50;;;3.20;;
495;SDS011;39559;48.630;9.162;2022-09-16T18:31:49;3.60;;;3.30;;
495;SDS011;39559;48.630;9.162;2022-09-16T18:34:16;3.90;;;3.50;;
495;SDS011;39559;48.630;9.162;2022-09-16T18:36:42;4.43;;;4.03;;
495;SDS011;39559;48.630;9.162;2022-09-16T18:39:10;5.17;;;3.57;;
495;SDS011;39559;48.630;9.162;2022-09-16T18:41:39;6.60;;;3.45;;
495;SDS011;39559;48.630;9.162;2022-09-16T18:44:16;4.88;;;3.40;;
495;SDS011;39559;48.630;9.162;2022-09-16T18:46:44;5.20;;;4.03;;
495;SDS011;39559;48.630;9.162;2022-09-16T18:49:10;5.50;;;3.83;;
495;SDS011;39559;48.630;9.162;2022-09-16T18:53:20;4.35;;;4.00;;
495;SDS011;39559;48.630;9.162;2022-09-16T18:55:46;6.03;;;3.77;;
495;SDS011;39559;48.630;9.162;2022-09-16T18:58:11;4.00;;;3.70;;
495;SDS011;39559;48.630;9.162;2022-09-16T19:00:37;4.17;;;3.87;;
495;SDS011;39559;48.630;9.162;2022-09-16T19:03:02;4.47;;;3.90;;
495;SDS011;39559;48.630;9.162;2022-09-16T19:05:28;4.27;;;3.87;;
495;SDS011;39559;48.630;9.162;2022-09-16T19:07:54;4.17;;;3.57;;
495;SDS011;39559;48.630;9.162;2022-09-16T19:10:19;6.40;;;3.83;;
495;SDS011;39559;48.630;9.162;2022-09-16T19:12:45;4.87;;;4.17;;
495;SDS011;39559;48.630;9.162;2022-09-16T19:17:18;4.03;;;3.63;;
495;SDS011;39559;48.630;9.162;2022-09-16T19:19:43;4.23;;;3.83;;
495;SDS011;39559;48.630;9.162;2022-09-16T19:22:09;6.17;;;4.10;;
495;SDS011;39559;48.630;9.162;2022-09-16T19:24:34;4.90;;;4.00;;
495;SDS011;39559;48.630;9.162;2022-09-16T19:27:01;4.95;;;3.75;;
495;SDS011;39559;48.630;9.162;2022-09-16T19:29:27;4.70;;;3.63;;
495;SDS011;39559;48.630;9.162;2022-09-16T19:31:52;4.10;;;3.70;;
495;SDS011;39559;48.630;9.162;2022-09-16T19:34:19;4.72;;;3.70;;
495;SDS011;39559;48.630;9.162;2022-09-16T19:36:45;4.70;;;3.67;;
495;SDS011;39559;48.630;9.162;2022-09-16T19:41:16;4.15;;;3.75;;
495;SDS011;39559;48.630;9.162;2022-09-16T19:43:43;7.65;;;4.10;;
495;SDS011;39559;48.630;9.162;2022-09-16T19:46:10;5.50;;;4.28;;
495;SDS011;39559;48.630;9.162;2022-09-16T19:48:38;4.78;;;3.75;;
495;SDS011;39559;48.630;9.162;2022-09-16T19:51:06;5.63;;;3.70;;
495;SDS011;39559;48.630;9.162;2022-09-16T19:53:34;4.80;;;4.32;;